createdAt,value
2023-05-10T00:21:26.478Z,99808.73
2023-05-10T00:36:20.206Z,99812.34
2023-05-10T00:51:13.333Z,99826.41
2023-05-10T01:06:06.294Z,99817.84
2023-05-10T01:21:11.126Z,99812.84
2023-05-10T01:36:32.169Z,99810.89
2023-05-10T01:51:29.766Z,99818.33
2023-05-10T02:21:15.728Z,99830.10
2023-05-10T03:06:07.979Z,99829.69
2023-05-10T03:21:01.868Z,99842.84
2023-05-10T03:35:55.221Z,99873.05
2023-05-10T03:50:47.772Z,99880.52
2023-05-10T04:35:24.172Z,99898.70
2023-05-10T05:20:15.754Z,99909.99
2023-05-10T05:35:08.708Z,99920.48
2023-05-10T05:50:01.813Z,99928.36
2023-05-10T06:04:53.176Z,99943.13
2023-05-10T06:34:37.008Z,99978.13
2023-05-10T07:04:22.727Z,99991.92
2023-05-10T07:19:14.192Z,99994.82
2023-05-10T07:34:04.744Z,100005.40
2023-05-10T07:48:56.017Z,100013.67
2023-05-10T08:03:48.690Z,100021.00
2023-05-10T08:18:40.292Z,100026.89
2023-05-10T08:33:34.422Z,100025.00
2023-05-10T08:48:26.221Z,100039.66
2023-05-10T09:03:17.045Z,100055.36
2023-05-10T09:18:08.400Z,100068.52
2023-05-10T09:33:00.177Z,100075.97
2023-05-10T09:47:50.622Z,100098.45
2023-05-10T10:02:43.566Z,100096.33
2023-05-10T10:17:36.925Z,100102.76
2023-05-10T10:32:47.894Z,100108.80
2023-05-10T10:47:46.505Z,100110.87
2023-05-10T11:02:43.560Z,100114.47
2023-05-10T11:17:38.972Z,100113.38
2023-05-10T11:32:31.975Z,100112.89
2023-05-10T11:47:23.205Z,100123.50
2023-05-10T12:02:15.051Z,100126.23
2023-05-10T12:17:07.045Z,100125.66
2023-05-10T12:31:59.644Z,100133.68
2023-05-10T12:46:52.093Z,100128.10
2023-05-10T13:01:44.528Z,100128.11
2023-05-10T13:16:37.419Z,100117.09
2023-05-10T13:31:28.961Z,100102.39
2023-05-10T13:46:21.066Z,100105.95
2023-05-10T14:01:13.295Z,100096.19
2023-05-10T14:16:05.511Z,100096.17
2023-05-10T14:30:58.095Z,100077.34
2023-05-10T14:46:03.408Z,100070.17
2023-05-10T15:00:56.502Z,100066.61
2023-05-10T15:15:45.389Z,100078.17
2023-05-10T15:30:35.234Z,100080.92
2023-05-10T15:45:32.050Z,100087.11
2023-05-10T16:00:22.551Z,100093.05
2023-05-10T16:15:16.036Z,100091.23
2023-05-10T17:00:03.964Z,100109.10
2023-05-10T17:29:48.421Z,100119.19
2023-05-10T18:14:39.056Z,100137.36
2023-05-10T18:29:30.486Z,100138.50
2023-05-10T18:44:17.598Z,100155.62
2023-05-10T18:59:09.778Z,100160.62
2023-05-10T19:14:09.039Z,100172.94
2023-05-10T19:29:00.336Z,100195.05
2023-05-10T19:43:51.231Z,100204.33
2023-05-10T19:58:42.793Z,100216.80
2023-05-10T20:13:34.665Z,100220.34
2023-05-10T20:28:26.773Z,100221.62
2023-05-10T20:43:17.675Z,100223.23
2023-05-10T20:58:09.238Z,100221.83
2023-05-10T21:13:00.448Z,100223.92
2023-05-10T21:27:52.554Z,100218.96
2023-05-10T21:42:44.664Z,100217.20
2023-05-10T21:57:36.415Z,100214.09
2023-05-10T22:12:27.292Z,100205.20
2023-05-10T22:27:17.778Z,100201.92
2023-05-10T22:42:08.860Z,100215.20
2023-05-10T22:57:00.600Z,100204.16
2023-05-10T23:11:51.932Z,100203.88
2023-05-10T23:41:35.328Z,100225.19
